Time;durP1;ratioP1;P1;durP2;ratioP2;P2;SDS_P1;SDS_P2;PMS_P1;PMS_P2;Temp;Humidity;BMP_temperature;BMP_pressure;BME280_temperature;BME280_humidity;BME280_pressure;Samples;Min_cycle;Max_cycle;Signal;HPM_P1;HPM_P2
2022/05/05 00:02:03;;;;;;;11.03;10.17;;;;;;;9.38;100.00;97152.44;5030931;28;20234;-58
2022/05/05 00:04:31;;;;;;;12.30;10.40;;;;;;;9.39;100.00;97140.84;5042543;28;20312;-60
2022/05/05 00:07:01;;;;;;;11.47;10.27;;;;;;;9.39;100.00;97154.06;5030577;28;21070;-59
2022/05/05 00:09:29;;;;;;;10.07;9.17;;;;;;;9.43;100.00;97145.78;5042696;28;20289;-63
2022/05/05 00:14:45;;;;;;;11.33;10.43;;;;;;;9.38;100.00;97141.84;5007775;28;20947;-60
2022/05/05 00:17:13;;;;;;;10.80;10.00;;;;;;;9.40;100.00;97141.69;5029343;28;20353;-57
2022/05/05 00:19:42;;;;;;;10.50;9.60;;;;;;;9.43;100.00;97143.97;5031550;28;20310;-56
2022/05/05 00:22:11;;;;;;;11.20;10.20;;;;;;;9.42;100.00;97150.25;5037077;28;20306;-62
2022/05/05 00:24:39;;;;;;;10.20;9.37;;;;;;;9.44;100.00;97150.06;5042988;28;20652;-52
2022/05/05 00:27:08;;;;;;;10.90;9.93;;;;;;;9.50;100.00;97149.38;5025671;28;20280;-57
2022/05/05 00:29:36;;;;;;;10.60;9.80;;;;;;;9.54;100.00;97145.38;5011675;28;20605;-59
2022/05/05 00:32:06;;;;;;;10.63;9.67;;;;;;;9.51;100.00;97146.53;5025214;28;20330;-61
2022/05/05 00:34:34;;;;;;;10.73;9.90;;;;;;;9.55;100.00;97147.81;5044177;28;20543;-56
2022/05/05 00:37:02;;;;;;;10.03;9.13;;;;;;;9.57;100.00;97147.66;5037487;28;20761;-59
2022/05/05 00:39:30;;;;;;;12.33;11.10;;;;;;;9.59;100.00;97144.81;5044280;28;20688;-56
2022/05/05 00:42:00;;;;;;;10.50;9.70;;;;;;;9.58;100.00;97138.72;5029566;28;20253;-64
2022/05/05 00:44:28;;;;;;;10.37;9.47;;;;;;;9.55;100.00;97149.66;5007728;28;20239;-53
2022/05/05 00:46:57;;;;;;;11.47;10.47;;;;;;;9.51;100.00;97154.47;5030126;28;20618;-61
2022/05/05 00:49:29;;;;;;;11.27;10.33;;;;;;;9.50;100.00;97155.47;5044220;28;20206;-59
2022/05/05 00:51:58;;;;;;;11.33;10.43;;;;;;;9.55;100.00;97152.31;5040213;28;20254;-64
2022/05/05 00:54:27;;;;;;;10.90;9.97;;;;;;;9.48;100.00;97157.47;5044933;28;20751;-60
2022/05/05 00:56:55;;;;;;;11.03;10.13;;;;;;;9.54;100.00;97150.66;5039584;28;20641;-62
2022/05/05 00:59:23;;;;;;;11.43;10.33;;;;;;;9.54;100.00;97154.13;4991855;28;20834;-58
2022/05/05 01:01:51;;;;;;;11.63;10.63;;;;;;;9.62;100.00;97153.22;5036877;28;20317;-62
2022/05/05 01:04:20;;;;;;;11.57;10.47;;;;;;;9.58;100.00;97159.06;5035657;28;20200;-57
2022/05/05 01:06:49;;;;;;;11.27;10.27;;;;;;;9.61;100.00;97150.75;5047783;28;20326;-60
2022/05/05 01:09:17;;;;;;;10.53;9.63;;;;;;;9.62;100.00;97150.59;5044503;28;20322;-58
2022/05/05 01:11:45;;;;;;;11.00;10.10;;;;;;;9.65;100.00;97152.88;5039709;28;21171;-63
2022/05/05 01:14:18;;;;;;;11.00;10.10;;;;;;;9.59;100.00;97150.13;5027154;28;21086;-58
2022/05/05 01:16:46;;;;;;;9.83;9.03;;;;;;;9.60;100.00;97152.59;5003245;28;20219;-62
2022/05/05 01:19:14;;;;;;;10.83;9.93;;;;;;;9.58;100.00;97148.47;5030451;28;20199;-63
2022/05/05 01:21:51;;;;;;;11.20;10.03;;;;;;;9.50;100.00;97146.75;5030596;28;20343;-63
2022/05/05 01:28:10;;;;;;;10.37;9.50;;;;;;;9.51;100.00;97154.47;5042585;28;20276;-61
2022/05/05 01:29:54;;;;;;;12.03;11.07;;;;;;;9.44;100.00;97140.31;5012012;28;20296;-64
2022/05/05 01:32:22;;;;;;;11.67;10.67;;;;;;;9.51;100.00;97146.53;5033428;28;20242;-57
2022/05/05 01:34:50;;;;;;;10.40;9.50;;;;;;;9.52;100.00;97153.47;5024563;28;20288;-66
2022/05/05 01:37:20;;;;;;;11.27;10.37;;;;;;;9.53;100.00;97152.47;5030055;28;20207;-63
2022/05/05 01:39:48;;;;;;;12.63;11.43;;;;;;;9.58;100.00;97151.13;5037317;28;20257;-63
2022/05/05 01:42:16;;;;;;;11.27;10.37;;;;;;;9.54;100.00;97153.31;5042014;28;20222;-57
2022/05/05 01:44:44;;;;;;;11.77;10.67;;;;;;;9.62;100.00;97155.03;5044999;28;20302;-62
2022/05/05 01:47:12;;;;;;;12.30;11.20;;;;;;;9.58;100.00;97161.69;4990405;28;20211;-60
2022/05/05 01:49:40;;;;;;;10.60;9.80;;;;;;;9.55;100.00;97162.88;5029088;28;20766;-58
2022/05/05 01:52:09;;;;;;;11.80;10.80;;;;;;;9.54;100.00;97156.75;5039599;28;20226;-57
2022/05/05 01:54:39;;;;;;;12.50;11.40;;;;;;;9.66;100.00;97165.09;5046945;28;20211;-55
2022/05/05 01:57:07;;;;;;;11.63;10.43;;;;;;;9.61;100.00;97169.28;5031951;28;20329;-57
2022/05/05 01:59:36;;;;;;;11.20;10.30;;;;;;;9.67;100.00;97163.28;5048432;28;20222;-55
2022/05/05 02:02:05;;;;;;;11.87;10.90;;;;;;;9.71;100.00;97169.88;4974346;28;20231;-62
2022/05/05 02:04:33;;;;;;;11.27;10.30;;;;;;;9.72;100.00;97168.88;5042043;28;20261;-59
2022/05/05 02:07:01;;;;;;;11.93;10.93;;;;;;;9.69;100.00;97171.88;5028282;28;20226;-59
2022/05/05 02:09:30;;;;;;;11.47;10.50;;;;;;;9.67;100.00;97172.03;5022574;28;20286;-61
2022/05/05 02:12:00;;;;;;;12.50;11.47;;;;;;;9.70;100.00;97176.97;5047623;28;20325;-54
2022/05/05 02:14:28;;;;;;;13.47;12.30;;;;;;;9.65;100.00;97170.56;5046729;28;20344;-57
2022/05/05 02:16:56;;;;;;;13.07;11.87;;;;;;;9.62;100.00;97171.75;5018230;28;20330;-62
2022/05/05 02:19:24;;;;;;;12.47;11.37;;;;;;;9.55;100.00;97166.34;5003171;28;20381;-62
2022/05/05 02:21:52;;;;;;;12.27;11.27;;;;;;;9.56;100.00;97164.53;5027991;28;20318;-60
2022/05/05 02:24:20;;;;;;;12.23;11.13;;;;;;;9.60;100.00;97163.16;5026172;28;20710;-62
2022/05/05 02:26:48;;;;;;;11.13;10.23;;;;;;;9.48;100.00;97164.59;5046109;28;20633;-59
2022/05/05 02:29:17;;;;;;;11.77;10.67;;;;;;;9.50;100.00;97159.97;5029239;28;20293;-61
2022/05/05 02:31:46;;;;;;;12.13;11.13;;;;;;;9.48;100.00;97160.13;5029098;28;20238;-59
2022/05/05 02:34:14;;;;;;;11.10;10.20;;;;;;;9.44;100.00;97163.28;5004554;28;20214;-62
2022/05/05 02:39:27;;;;;;;11.73;10.73;;;;;;;9.37;100.00;97150.78;5046564;28;20231;-57
2022/05/05 02:41:55;;;;;;;10.40;9.50;;;;;;;9.39;100.00;97151.41;5048638;28;20782;-64
2022/05/05 02:44:26;;;;;;;11.90;10.70;;;;;;;9.34;100.00;97152.97;5037137;28;20300;-55
2022/05/05 02:46:54;;;;;;;11.13;10.13;;;;;;;9.40;100.00;97150.41;5031432;28;20246;-60
2022/05/05 02:49:27;;;;;;;11.90;10.87;;;;;;;9.25;100.00;97153.00;5001648;28;20206;-57
2022/05/05 02:51:55;;;;;;;12.03;10.83;;;;;;;9.20;100.00;97136.84;5028689;28;20746;-57
2022/05/05 02:57:08;;;;;;;11.27;10.33;;;;;;;9.17;100.00;97146.97;5045720;28;20719;-61
2022/05/05 02:59:38;;;;;;;11.80;10.77;;;;;;;9.12;100.00;97137.75;5044540;28;21124;-55
2022/05/05 03:02:06;;;;;;;11.03;10.03;;;;;;;9.09;100.00;97147.84;5030829;28;20231;-62
2022/05/05 03:04:34;;;;;;;10.93;10.03;;;;;;;8.95;100.00;97141.50;4988132;28;20218;-59
2022/05/05 03:07:03;;;;;;;11.27;10.37;;;;;;;9.01;100.00;97140.78;5020465;28;20216;-61
2022/05/05 03:09:31;;;;;;;11.93;10.83;;;;;;;8.87;100.00;97142.34;5031502;28;23139;-61
2022/05/05 03:11:59;;;;;;;12.20;11.07;;;;;;;8.69;100.00;97143.44;5038283;28;20326;-60
2022/05/05 03:14:27;;;;;;;10.73;9.83;;;;;;;8.68;100.00;97140.97;5018688;28;20589;-60
2022/05/05 03:16:57;;;;;;;11.67;10.67;;;;;;;8.65;100.00;97138.66;5046458;28;20635;-59
2022/05/05 03:19:26;;;;;;;12.23;11.20;;;;;;;8.59;100.00;97131.44;4992547;28;21955;-60
2022/05/05 03:21:54;;;;;;;11.57;10.67;;;;;;;8.51;100.00;97132.28;5014676;28;20346;-57
2022/05/05 03:24:22;;;;;;;11.67;10.57;;;;;;;8.40;100.00;97125.56;5046263;28;20215;-64
2022/05/05 03:26:50;;;;;;;12.00;10.90;;;;;;;8.34;100.00;97132.34;5024587;28;20760;-59
2022/05/05 03:29:18;;;;;;;11.40;10.40;;;;;;;8.43;100.00;97133.16;5026419;28;20231;-56
2022/05/05 03:31:46;;;;;;;12.80;11.60;;;;;;;8.42;100.00;97141.22;5039505;28;20304;-62
2022/05/05 03:34:16;;;;;;;12.40;11.20;;;;;;;8.32;100.00;97141.41;5009770;28;20868;-59
2022/05/05 03:36:44;;;;;;;11.07;10.07;;;;;;;8.25;100.00;97146.56;5008502;28;20934;-60
2022/05/05 03:39:12;;;;;;;11.13;10.20;;;;;;;8.15;100.00;97149.41;5026565;28;20467;-59
2022/05/05 03:41:40;;;;;;;11.70;10.70;;;;;;;8.09;100.00;97158.81;5020871;28;20233;-59
2022/05/05 03:44:08;;;;;;;11.97;10.90;;;;;;;8.00;100.00;97149.28;5038441;28;20457;-59
2022/05/05 03:46:36;;;;;;;12.37;11.37;;;;;;;7.97;100.00;97153.09;5043079;28;20227;-60
2022/05/05 03:49:04;;;;;;;13.03;11.83;;;;;;;7.99;100.00;97162.66;5044409;28;20237;-60
2022/05/05 03:51:34;;;;;;;11.47;10.40;;;;;;;7.95;100.00;97167.41;4999114;28;20222;-58
2022/05/05 03:54:02;;;;;;;12.53;11.33;;;;;;;7.94;100.00;97165.78;5022775;28;20219;-62
2022/05/05 03:56:30;;;;;;;11.53;10.57;;;;;;;7.87;100.00;97170.88;5031210;28;20223;-54
2022/05/05 03:58:58;;;;;;;14.73;13.30;;;;;;;7.93;100.00;97177.31;5046903;28;20327;-60
2022/05/05 04:01:26;;;;;;;14.57;12.87;;;;;;;8.11;100.00;97174.47;5040418;28;20234;-60
2022/05/05 04:03:55;;;;;;;15.67;14.20;;;;;;;8.26;100.00;97177.25;5043930;28;20203;-60
2022/05/05 04:06:23;;;;;;;24.83;14.17;;;;;;;8.37;100.00;97184.81;5026347;28;21058;-60
2022/05/05 04:08:53;;;;;;;15.53;14.03;;;;;;;8.48;100.00;97185.41;4978022;28;20214;-62
2022/05/05 04:11:21;;;;;;;19.63;14.63;;;;;;;8.59;100.00;97197.47;5028586;28;20834;-60
2022/05/05 04:13:49;;;;;;;16.63;14.93;;;;;;;8.72;100.00;97195.13;5043359;28;20263;-60
2022/05/05 04:16:17;;;;;;;16.83;15.27;;;;;;;8.93;100.00;97189.25;5041249;28;20284;-59
2022/05/05 04:18:45;;;;;;;16.70;15.10;;;;;;;9.00;100.00;97199.91;5046051;28;20226;-59
2022/05/05 04:21:13;;;;;;;17.87;16.17;;;;;;;9.10;100.00;97202.34;5025964;28;20245;-62
2022/05/05 04:23:41;;;;;;;17.40;15.37;;;;;;;9.14;100.00;97208.13;5007977;28;20798;-60
2022/05/05 04:26:13;;;;;;;15.37;13.77;;;;;;;9.04;100.00;97208.34;5026346;28;20851;-58
2022/05/05 04:28:42;;;;;;;15.60;14.00;;;;;;;9.03;100.00;97204.84;5028975;28;20212;-60
2022/05/05 04:31:11;;;;;;;17.23;13.13;;;;;;;9.05;100.00;97205.50;5041511;28;20230;-58
2022/05/05 04:33:39;;;;;;;23.47;13.27;;;;;;;9.04;100.00;97209.16;5045488;28;20286;-61
2022/05/05 04:36:08;;;;;;;16.13;14.23;;;;;;;9.17;100.00;97213.88;5026891;28;20210;-59
2022/05/05 04:38:37;;;;;;;14.33;12.83;;;;;;;9.22;100.00;97206.22;5005874;28;20221;-61
2022/05/05 04:41:05;;;;;;;21.13;13.23;;;;;;;9.30;100.00;97212.50;5025291;28;20262;-61
2022/05/05 04:43:34;;;;;;;14.10;12.50;;;;;;;9.39;100.00;97212.25;5028961;28;20196;-57
2022/05/05 04:46:03;;;;;;;21.07;12.93;;;;;;;9.49;100.00;97221.78;5041238;28;20254;-64
2022/05/05 04:48:31;;;;;;;17.30;14.23;;;;;;;9.51;100.00;97219.78;5041958;28;20223;-60
2022/05/05 04:50:59;;;;;;;14.27;12.93;;;;;;;9.76;100.00;97220.41;5035723;28;20258;-64
2022/05/05 04:53:27;;;;;;;16.43;14.73;;;;;;;9.94;100.00;97213.97;5038074;28;20207;-59
2022/05/05 04:55:56;;;;;;;42.80;31.30;;;;;;;10.07;100.00;97224.78;4978678;28;20266;-61
2022/05/05 04:58:24;;;;;;;15.60;14.13;;;;;;;10.13;100.00;97224.06;5024864;28;20822;-61
2022/05/05 05:00:54;;;;;;;14.27;12.97;;;;;;;10.29;100.00;97232.84;5037714;28;20230;-61
2022/05/05 05:03:35;;;;;;;16.20;14.60;;;;;;;10.36;100.00;97230.31;5043460;28;20457;-60
2022/05/05 05:06:05;;;;;;;15.33;13.83;;;;;;;10.47;100.00;97229.06;5040894;28;20761;-63
2022/05/05 05:08:33;;;;;;;14.13;12.93;;;;;;;10.68;100.00;97233.63;5027283;28;20762;-62
2022/05/05 05:11:02;;;;;;;14.73;13.40;;;;;;;10.88;100.00;97228.59;4983192;28;20619;-65
2022/05/05 05:13:30;;;;;;;13.97;12.80;;;;;;;11.06;100.00;97222.06;5041881;28;20219;-62
2022/05/05 05:16:00;;;;;;;16.67;15.17;;;;;;;11.40;100.00;97221.44;5039247;28;20269;-64
2022/05/05 05:18:28;;;;;;;15.33;13.87;;;;;;;11.55;100.00;97228.50;5047758;28;20207;-60
2022/05/05 05:20:56;;;;;;;18.00;16.37;;;;;;;11.48;100.00;97228.44;5044336;28;20219;-62
2022/05/05 05:23:24;;;;;;;15.53;14.13;;;;;;;11.53;100.00;97226.03;5037216;28;20991;-62
2022/05/05 05:25:52;;;;;;;14.27;13.07;;;;;;;11.61;100.00;97224.28;5006468;28;20722;-63
2022/05/05 05:28:21;;;;;;;12.80;11.70;;;;;;;11.72;100.00;97226.44;5030423;28;20317;-61
2022/05/05 05:30:49;;;;;;;14.87;13.47;;;;;;;11.85;100.00;97221.22;5044540;28;20223;-62
2022/05/05 05:33:18;;;;;;;14.47;13.00;;;;;;;11.90;100.00;97227.78;5042715;28;20211;-60
2022/05/05 05:35:47;;;;;;;14.53;13.07;;;;;;;11.97;100.00;97226.03;5046988;28;20756;-61
2022/05/05 05:38:15;;;;;;;15.17;13.83;;;;;;;11.78;100.00;97215.03;5032813;28;20970;-61
2022/05/05 05:40:43;;;;;;;14.90;13.53;;;;;;;11.90;100.00;97225.97;5001657;28;20230;-60
2022/05/05 05:43:11;;;;;;;14.53;13.13;;;;;;;11.93;100.00;97222.94;5027221;28;20563;-57
2022/05/05 05:45:39;;;;;;;14.83;13.53;;;;;;;11.99;100.00;97226.66;5027210;28;20215;-58
2022/05/05 05:48:09;;;;;;;13.87;12.67;;;;;;;11.83;100.00;97225.09;5048519;28;20248;-55
2022/05/05 05:50:39;;;;;;;24.60;21.97;;;;;;;11.84;100.00;97235.50;5044429;28;20233;-62
2022/05/05 05:53:08;;;;;;;16.40;14.83;;;;;;;11.85;100.00;97226.53;5043027;28;20460;-60
2022/05/05 05:55:36;;;;;;;16.53;15.03;;;;;;;12.01;100.00;97235.28;4989961;28;20203;-60
2022/05/05 05:58:05;;;;;;;17.77;16.03;;;;;;;12.04;100.00;97237.56;5032492;28;20300;-64
2022/05/05 06:00:33;;;;;;;14.47;13.13;;;;;;;11.96;100.00;97237.69;5026441;28;20333;-58
2022/05/05 06:05:49;;;;;;;14.60;13.30;;;;;;;11.69;100.00;97240.09;5047303;28;20216;-63
2022/05/05 06:08:17;;;;;;;15.80;14.30;;;;;;;11.84;100.00;97248.00;5045986;28;20218;-59
2022/05/05 06:10:45;;;;;;;16.40;14.80;;;;;;;12.09;100.00;97245.78;5041402;28;20230;-61
2022/05/05 06:13:13;;;;;;;16.23;13.93;;;;;;;12.19;100.00;97253.41;5005643;28;20284;-60
2022/05/05 06:15:42;;;;;;;16.67;15.00;;;;;;;12.08;100.00;97249.44;5019018;28;20215;-59
2022/05/05 06:18:10;;;;;;;15.53;14.03;;;;;;;12.07;100.00;97247.81;5041859;28;20203;-62
2022/05/05 06:20:38;;;;;;;16.27;14.77;;;;;;;12.35;100.00;97252.31;5043305;28;20242;-60
2022/05/05 06:23:08;;;;;;;15.27;13.47;;;;;;;12.70;100.00;97240.88;5045428;28;20246;-61
2022/05/05 06:25:36;;;;;;;16.47;14.87;;;;;;;12.98;100.00;97247.97;5042337;28;20231;-61
2022/05/05 06:28:05;;;;;;;15.67;14.17;;;;;;;13.06;100.00;97241.63;5007262;28;20227;-63
2022/05/05 06:30:33;;;;;;;16.73;14.93;;;;;;;13.26;100.00;97239.88;5032236;28;20320;-59
2022/05/05 06:33:01;;;;;;;17.63;15.80;;;;;;;13.41;100.00;97234.41;5034219;28;20305;-64
2022/05/05 06:35:30;;;;;;;16.10;14.50;;;;;;;13.77;100.00;97239.63;5041782;28;20433;-61
2022/05/05 06:37:58;;;;;;;15.17;13.87;;;;;;;13.71;100.00;97236.75;5045906;28;20707;-64
2022/05/05 06:40:27;;;;;;;16.10;14.70;;;;;;;13.71;100.00;97250.06;5044843;28;20494;-61
2022/05/05 06:42:56;;;;;;;15.60;14.20;;;;;;;13.81;100.00;97248.84;4994094;28;20306;-63
2022/05/05 06:45:24;;;;;;;15.73;14.13;;;;;;;13.43;100.00;97247.53;5046689;28;20272;-62
2022/05/05 06:47:53;;;;;;;15.50;14.00;;;;;;;13.04;100.00;97249.81;5031822;28;20577;-62
2022/05/05 06:50:21;;;;;;;16.63;15.03;;;;;;;12.90;100.00;97256.13;5045178;28;21176;-63
2022/05/05 06:52:50;;;;;;;17.17;15.47;;;;;;;12.98;100.00;97256.75;5040701;28;20214;-64
2022/05/05 06:55:19;;;;;;;17.07;15.47;;;;;;;12.76;100.00;97266.66;5040259;28;20293;-63
2022/05/05 06:57:49;;;;;;;18.00;16.10;;;;;;;12.95;100.00;97261.66;5030229;28;20260;-64
2022/05/05 07:00:17;;;;;;;17.17;15.47;;;;;;;12.87;100.00;97260.78;5012974;28;21078;-62
2022/05/05 07:02:46;;;;;;;17.87;16.23;;;;;;;13.40;100.00;97261.19;5039686;28;20218;-61
2022/05/05 07:05:26;;;;;;;19.30;16.90;;;;;;;13.77;100.00;97260.94;5027660;28;20215;-64
2022/05/05 07:07:55;;;;;;;17.47;15.67;;;;;;;13.95;100.00;97255.00;5045072;28;20295;-64
2022/05/05 07:13:12;;;;;;;18.53;16.77;;;;;;;13.97;100.00;97259.09;5033100;28;20417;-60
2022/05/05 07:15:40;;;;;;;19.23;17.43;;;;;;;13.97;100.00;97258.28;5006474;28;20311;-63
2022/05/05 07:18:09;;;;;;;21.80;19.70;;;;;;;14.25;100.00;97260.75;5025020;28;20864;-58
2022/05/05 07:20:37;;;;;;;20.67;18.67;;;;;;;14.54;100.00;97268.50;5047322;28;20615;-62
2022/05/05 07:23:07;;;;;;;20.27;18.43;;;;;;;14.98;100.00;97258.19;5038863;28;20444;-60
2022/05/05 07:25:35;;;;;;;20.50;18.70;;;;;;;14.87;100.00;97262.31;5041655;28;20304;-58
2022/05/05 07:28:03;;;;;;;19.40;17.63;;;;;;;15.03;100.00;97261.03;5029338;28;20745;-64
2022/05/05 07:30:33;;;;;;;19.13;17.30;;;;;;;15.22;100.00;97262.00;5007199;28;20645;-62
2022/05/05 07:33:01;;;;;;;17.53;15.93;;;;;;;15.42;100.00;97256.56;5030142;28;20226;-64
2022/05/05 07:35:30;;;;;;;17.60;15.93;;;;;;;15.29;100.00;97264.63;5030482;28;20245;-57
2022/05/05 07:37:59;;;;;;;18.77;16.97;;;;;;;15.02;100.00;97262.91;5039679;28;20535;-63
2022/05/05 07:40:27;;;;;;;17.97;16.27;;;;;;;14.96;100.00;97271.72;5041751;28;20226;-62
2022/05/05 07:42:55;;;;;;;18.17;16.37;;;;;;;15.43;100.00;97260.06;5041269;28;20284;-62
2022/05/05 07:45:23;;;;;;;18.10;16.50;;;;;;;15.57;100.00;97268.81;5005639;28;20422;-61
2022/05/05 07:47:56;;;;;;;16.93;15.57;;;;;;;15.57;100.00;97272.28;5031570;28;20215;-64
2022/05/05 07:50:24;;;;;;;17.47;15.87;;;;;;;15.37;100.00;97266.25;5029282;28;20506;-59
2022/05/05 07:52:53;;;;;;;17.40;15.70;;;;;;;15.02;100.00;97270.91;5045956;28;20218;-63
2022/05/05 07:55:21;;;;;;;17.53;15.83;;;;;;;14.93;100.00;97280.16;5045191;28;20534;-62
2022/05/05 07:57:50;;;;;;;16.53;14.97;;;;;;;14.90;100.00;97285.91;5039789;28;20208;-64
2022/05/05 08:00:18;;;;;;;16.50;14.90;;;;;;;15.00;100.00;97283.63;5006067;28;20447;-64
2022/05/05 08:02:46;;;;;;;16.80;15.30;;;;;;;15.17;100.00;97286.66;5032380;28;20214;-65
2022/05/05 08:05:17;;;;;;;17.10;15.50;;;;;;;15.10;100.00;97293.03;5038112;28;20203;-62
2022/05/05 08:07:48;;;;;;;16.30;14.77;;;;;;;15.20;100.00;97288.06;5043130;28;20215;-64
2022/05/05 08:10:17;;;;;;;17.90;16.23;;;;;;;15.13;100.00;97297.97;5043038;28;20731;-58
2022/05/05 08:12:46;;;;;;;16.27;14.77;;;;;;;14.99;100.00;97303.34;5044024;28;20203;-65
2022/05/05 08:15:16;;;;;;;15.77;14.17;;;;;;;15.53;100.00;97294.28;5040286;28;20203;-60
2022/05/05 08:17:44;;;;;;;15.80;14.40;;;;;;;15.75;100.00;97311.66;4999245;28;20523;-59
2022/05/05 08:20:13;;;;;;;15.70;14.30;;;;;;;15.89;100.00;97315.09;5030531;28;20531;-61
2022/05/05 08:22:43;;;;;;;15.20;14.00;;;;;;;15.71;100.00;97314.94;5030147;28;20211;-62
2022/05/05 08:30:42;;;;;;;14.37;13.17;;;;;;;15.72;100.00;97311.25;5041570;28;20237;-65
2022/05/05 08:33:10;;;;;;;14.27;13.07;;;;;;;15.88;100.00;97320.63;5000066;28;20217;-62
2022/05/05 08:35:40;;;;;;;13.70;12.50;;;;;;;16.55;100.00;97322.84;5032289;28;20215;-61
2022/05/05 08:38:10;;;;;;;13.30;12.10;;;;;;;16.82;100.00;97324.44;5024842;28;20515;-61
2022/05/05 08:40:41;;;;;;;13.13;12.03;;;;;;;17.28;100.00;97317.84;5043076;28;20227;-64
2022/05/05 08:43:09;;;;;;;11.67;10.77;;;;;;;17.18;100.00;97326.38;5042038;28;20208;-61
2022/05/05 08:45:39;;;;;;;11.57;10.67;;;;;;;16.90;100.00;97332.22;5040706;28;20288;-61
2022/05/05 08:48:08;;;;;;;11.00;10.10;;;;;;;16.45;100.00;97335.88;5002484;28;20905;-61
2022/05/05 08:50:37;;;;;;;12.57;11.57;;;;;;;16.28;100.00;97332.94;5028376;28;20564;-64
2022/05/05 08:53:07;;;;;;;11.20;10.30;;;;;;;16.23;100.00;97328.22;5026163;28;20214;-63
2022/05/05 08:55:36;;;;;;;12.57;11.57;;;;;;;16.62;100.00;97328.13;5039785;28;20884;-62
2022/05/05 08:58:05;;;;;;;11.67;10.57;;;;;;;16.82;100.00;97324.44;5039972;28;20245;-62
2022/05/05 09:00:33;;;;;;;11.97;10.97;;;;;;;16.54;100.00;97328.41;5043378;28;20227;-62
2022/05/05 09:03:04;;;;;;;10.73;9.90;;;;;;;16.74;100.00;97323.69;5001677;28;20211;-65
2022/05/05 09:05:55;;;;;;;11.23;10.37;;;;;;;16.94;100.00;97328.03;5026933;28;20230;-63
2022/05/05 09:08:31;;;;;;;10.90;10.10;;;;;;;16.86;100.00;97328.34;5024185;28;20424;-64
2022/05/05 09:11:02;;;;;;;10.60;9.80;;;;;;;16.40;100.00;97331.19;5038520;28;20230;-64
2022/05/05 09:13:32;;;;;;;11.40;10.47;;;;;;;16.29;100.00;97331.91;5043409;28;20683;-59
2022/05/05 09:16:03;;;;;;;10.10;9.20;;;;;;;15.91;100.00;97322.91;5041206;28;20479;-65
2022/05/05 09:18:33;;;;;;;9.67;8.87;;;;;;;16.52;100.00;97331.28;5002288;28;20223;-60
2022/05/05 09:21:03;;;;;;;10.13;9.30;;;;;;;16.83;100.00;97321.56;5031384;28;20715;-64
2022/05/05 09:23:34;;;;;;;9.73;8.83;;;;;;;16.86;100.00;97325.66;5033775;28;20778;-62
2022/05/05 09:26:05;;;;;;;9.50;8.80;;;;;;;16.62;100.00;97331.63;5039458;28;20229;-65
2022/05/05 09:28:35;;;;;;;10.17;9.27;;;;;;;16.95;100.00;97334.19;5044230;28;20601;-62
2022/05/05 09:31:08;;;;;;;10.03;9.13;;;;;;;16.93;100.00;97329.09;5038747;28;20674;-62
2022/05/05 09:33:41;;;;;;;9.60;8.83;;;;;;;16.73;100.00;97327.41;5006625;28;20762;-63
2022/05/05 09:36:11;;;;;;;9.07;8.37;;;;;;;17.08;100.00;97331.44;5040293;28;20374;-61
2022/05/05 09:38:50;;;;;;;9.60;8.80;;;;;;;17.32;100.00;97332.41;5026444;28;20290;-62
2022/05/05 09:41:20;;;;;;;9.80;9.00;;;;;;;17.57;100.00;97323.44;5038199;28;20499;-59
2022/05/05 09:43:48;;;;;;;8.97;8.27;;;;;;;17.81;100.00;97330.78;5035404;28;20560;-65
2022/05/05 09:46:33;;;;;;;7.50;6.93;;;;;;;17.83;100.00;97332.19;5037486;28;20309;-62
2022/05/05 09:49:07;;;;;;;8.67;8.07;;;;;;;17.53;100.00;97337.53;4998624;28;20245;-64
2022/05/05 09:51:42;;;;;;;9.47;8.77;;;;;;;17.36;100.00;97340.78;5041699;28;20862;-63
2022/05/05 09:59:51;;;;;;;8.13;7.53;;;;;;;16.19;100.00;97327.03;5040527;28;20204;-59
2022/05/05 10:05:11;;;;;;;8.10;7.30;;;;;;;16.10;100.00;97323.81;4999657;28;20229;-61
2022/05/05 10:07:44;;;;;;;7.87;7.37;;;;;;;16.20;100.00;97328.66;5044158;28;20199;-61
2022/05/05 10:10:16;;;;;;;7.80;7.10;;;;;;;16.65;100.00;97325.03;5033781;28;20312;-64
2022/05/05 10:12:47;;;;;;;8.87;7.80;;;;;;;16.79;100.00;97310.47;5042659;28;20537;-65
2022/05/05 10:15:15;;;;;;;7.53;6.80;;;;;;;16.55;100.00;97312.13;5038928;28;20206;-62
2022/05/05 10:17:45;;;;;;;6.67;6.17;;;;;;;16.72;100.00;97304.38;5046170;28;20214;-59
2022/05/05 10:20:14;;;;;;;6.20;5.70;;;;;;;16.72;100.00;97308.91;4993759;28;20925;-63
2022/05/05 10:22:48;;;;;;;6.33;5.93;;;;;;;16.61;100.00;97294.41;5044098;28;20297;-65
2022/05/05 10:25:20;;;;;;;7.57;7.07;;;;;;;16.68;100.00;97297.81;5030608;28;20603;-63
2022/05/05 10:27:49;;;;;;;7.00;6.50;;;;;;;17.19;100.00;97303.91;5044669;28;20454;-62
2022/05/05 10:30:31;;;;;;;8.10;7.57;;;;;;;17.46;100.00;97305.44;5043037;28;21031;-60
2022/05/05 10:33:00;;;;;;;7.77;7.07;;;;;;;17.85;100.00;97303.28;5040456;28;20210;-64
2022/05/05 10:35:38;;;;;;;6.33;5.93;;;;;;;17.51;100.00;97305.59;5001426;28;20717;-60
2022/05/05 10:38:39;;;;;;;7.00;6.50;;;;;;;17.40;100.00;97303.69;5033397;28;20215;-65
2022/05/05 10:41:35;;;;;;;7.80;7.20;;;;;;;17.61;100.00;97297.03;5031917;28;20688;-66
2022/05/05 10:44:26;;;;;;;7.37;6.87;;;;;;;18.09;100.00;97295.34;5041186;28;20208;-65
2022/05/05 10:47:01;;;;;;;6.40;5.83;;;;;;;18.60;100.00;97294.94;5042875;28;20292;-63
2022/05/05 10:49:49;;;;;;;6.17;5.77;;;;;;;18.70;100.00;97297.84;5040592;28;20615;-58
2022/05/05 10:52:50;;;;;;;6.93;6.33;;;;;;;18.58;100.00;97292.50;5001547;28;20411;-63
2022/05/05 10:55:25;;;;;;;5.90;5.50;;;;;;;17.58;100.00;97298.28;5018573;28;20666;-63
2022/05/05 10:58:13;;;;;;;7.57;6.97;;;;;;;17.09;100.00;97294.75;5025814;28;20478;-60
2022/05/05 11:00:44;;;;;;;7.90;7.23;;;;;;;17.09;100.00;97300.94;5041847;28;20297;-63
2022/05/05 11:03:14;;;;;;;8.80;8.00;;;;;;;17.72;100.00;97290.09;5038492;28;20204;-63
2022/05/05 11:05:42;;;;;;;7.80;7.17;;;;;;;17.92;100.00;97295.16;5043560;28;20207;-60
2022/05/05 11:08:33;;;;;;;8.30;7.50;;;;;;;17.69;100.00;97290.53;4997832;28;20250;-62
2022/05/05 11:13:47;;;;;;;8.47;7.77;;;;;;;17.85;100.00;97283.72;5027764;28;20260;-62
2022/05/05 11:22:06;;;;;;;6.37;5.97;;;;;;;17.96;100.00;97296.34;5014314;28;20234;-65
2022/05/05 11:24:34;;;;;;;6.10;5.60;;;;;;;18.05;100.00;97283.47;5048006;28;20202;-59
2022/05/05 11:27:03;;;;;;;5.07;4.77;;;;;;;18.11;100.00;97287.91;5033705;28;20285;-65
2022/05/05 11:29:32;;;;;;;5.20;4.90;;;;;;;18.66;100.00;97284.09;5039921;28;20214;-58
2022/05/05 11:32:05;;;;;;;5.00;4.70;;;;;;;19.03;100.00;97292.97;5044148;28;20297;-64
2022/05/05 11:34:34;;;;;;;4.70;4.40;;;;;;;18.80;100.00;97290.06;5042247;28;20614;-64
2022/05/05 11:37:07;;;;;;;4.50;4.20;;;;;;;19.45;95.69;97283.84;5010429;28;20206;-66
2022/05/05 11:39:37;;;;;;;4.50;4.20;;;;;;;19.94;96.81;97289.66;5044311;28;20262;-60
2022/05/05 11:42:06;;;;;;;4.53;4.20;;;;;;;20.64;94.72;97275.97;5030792;28;20235;-63
2022/05/05 11:44:36;;;;;;;4.43;4.13;;;;;;;20.77;93.21;97285.56;5040851;28;20693;-63
2022/05/05 11:47:12;;;;;;;4.27;4.00;;;;;;;21.64;88.45;97281.59;5039987;28;20212;-64
2022/05/05 11:49:43;;;;;;;3.57;3.23;;;;;;;21.23;71.10;97281.88;5039057;28;20207;-64
2022/05/05 11:52:12;;;;;;;3.13;2.80;;;;;;;20.76;61.34;97275.03;4993715;28;20682;-62
2022/05/05 11:54:40;;;;;;;3.37;3.10;;;;;;;21.21;61.18;97275.94;5023443;28;20670;-59
2022/05/05 11:57:08;;;;;;;4.03;3.83;;;;;;;21.19;64.96;97275.38;5031111;28;20199;-65
2022/05/05 12:02:25;;;;;;;3.50;3.30;;;;;;;22.01;58.31;97272.78;5026016;28;20242;-64
2022/05/05 12:04:54;;;;;;;3.80;3.50;;;;;;;22.61;60.25;97275.41;5041356;28;20254;-61
2022/05/05 12:07:26;;;;;;;3.77;3.57;;;;;;;22.11;60.13;97263.94;5014816;28;20195;-65
2022/05/05 12:09:55;;;;;;;4.03;3.83;;;;;;;22.17;60.73;97270.22;5043513;28;20692;-58
2022/05/05 12:12:25;;;;;;;4.40;4.10;;;;;;;21.52;80.47;97265.53;5023092;28;20223;-64